Forside
METAR-TAF:

METAR-TAF

Lufthavne :

Kristianstad, Sverige

Breddekreds: 55-55N, længdekreds: 014-05E, højde: 23 m

Aktuelle vejr

Denne rapport blev lavet for 23 minutter siden, kl. 19:50 UTC
Vind 18 kt fra vestsydvest med vindstød på up til 30 kt, varierende mellem sydvest og vest
Temperatur 6°C
Fugtighed 70%
Tryk 999 hPa
Sigt 10 km eller mere

METAR: ESMK 221950Z AUTO 25018G30KT 220V280 9999 ///////// 06/01 Q0999

Tid: 21:13 (20:13 UTC)

Vejrudsigter

Denne rapport blev lavet for 26 timer og 10 minutter siden, kl. 18:03 UTC
Foreløbig gælder fra 21 på 18 UTC til 21 på 20 UTC
Vind 12 kt fra vestsydvest
Sigt 10 km eller mere
Brudte skyer i en højde af 2000 ft
Midlertidig
fra 21 på 18 UTC til 21 på 20 UTC
Vind 15 kt fra vestsydvest med vindstød på up til 28 kt
finregn
ændring
fra 21 på 18 UTC til 21 på 20 UTC
Brudte skyer i en højde af 1200 ft

TAF: ESMK 211803Z 2118/2120 24012KT 9999 BKN020 TEMPO 2118/2120 24015G28KT DZ BECMG 2118/2120 BKN012

Vejrobservationer og prognoser fra mere end 4000 lufthavne (METAR og TAF).

De gule og røde prikker repræsenterer de meteorologiske stationer.

Flyt musen over at se navnet på stationen.

Så klik over at se vejr observationer og prognoser.

At skifte det kort: Klik på de grønne knapper med et sort kors for at zoome ind; på den grønne knap med en bindestreg for at zoome ud; eller på de grønne pile for tilstødende kort.


METAR-TAF: